createdAt,value
2019-03-03T00:02:28.217Z,45.27
2019-03-03T00:04:56.676Z,45.17
2019-03-03T00:07:25.150Z,45.90
2019-03-03T00:09:53.558Z,45.27
2019-03-03T00:12:22.624Z,46.77
2019-03-03T00:14:51.199Z,46.00
2019-03-03T00:17:19.305Z,48.53
2019-03-03T00:19:47.548Z,48.20
2019-03-03T00:22:15.675Z,47.40
2019-03-03T00:24:45.368Z,49.10
2019-03-03T00:27:13.628Z,47.83
2019-03-03T00:29:41.975Z,47.73
2019-03-03T00:32:10.879Z,47.83
2019-03-03T00:34:38.937Z,47.60
2019-03-03T00:37:14.309Z,47.83
2019-03-03T00:40:04.794Z,46.83
2019-03-03T00:42:58.461Z,47.40
2019-03-03T00:45:41.809Z,48.27
2019-03-03T00:48:23.616Z,50.67
2019-03-03T00:51:11.826Z,51.53
2019-03-03T00:53:51.609Z,50.77
2019-03-03T00:56:28.070Z,50.03
2019-03-03T00:59:08.306Z,49.77
2019-03-03T01:02:10.612Z,49.60
2019-03-03T01:04:56.053Z,51.57
2019-03-03T01:07:49.350Z,48.53
2019-03-03T01:10:39.441Z,48.63
2019-03-03T01:13:19.355Z,47.17
2019-03-03T01:16:15.731Z,51.50
2019-03-03T01:18:52.366Z,49.17
2019-03-03T01:21:32.841Z,49.87
2019-03-03T01:24:18.367Z,48.93
2019-03-03T01:26:46.480Z,48.23
2019-03-03T01:29:14.872Z,49.17
2019-03-03T01:31:43.052Z,50.00
2019-03-03T01:34:11.421Z,50.70
2019-03-03T01:36:39.712Z,49.27
2019-03-03T01:39:08.152Z,48.77
2019-03-03T01:41:36.625Z,49.67
2019-03-03T01:44:05.065Z,49.40
2019-03-03T01:46:33.232Z,50.10
2019-03-03T01:49:01.605Z,47.80
2019-03-03T01:51:30.002Z,50.47
2019-03-03T01:53:58.310Z,48.83
2019-03-03T01:56:28.581Z,47.00
2019-03-03T01:58:57.709Z,45.50
2019-03-03T02:01:26.040Z,46.70
2019-03-03T02:03:54.739Z,47.20
2019-03-03T02:06:23.147Z,45.70
2019-03-03T02:08:51.712Z,46.13
2019-03-03T02:11:20.181Z,45.57
2019-03-03T02:16:24.610Z,47.17
2019-03-03T02:18:53.356Z,45.90
2019-03-03T02:24:07.183Z,45.17
2019-03-03T02:26:35.840Z,46.50
2019-03-03T02:29:30.760Z,47.73
2019-03-03T02:31:59.273Z,45.27
2019-03-03T02:34:32.227Z,46.63
2019-03-03T02:37:09.729Z,45.50
2019-03-03T02:39:41.875Z,46.17
2019-03-03T02:42:24.149Z,46.80
2019-03-03T02:44:55.874Z,46.87
2019-03-03T02:50:12.000Z,44.47
2019-03-03T02:52:48.761Z,46.83
2019-03-03T02:55:27.690Z,46.03
2019-03-03T02:58:03.863Z,46.83
2019-03-03T03:00:59.020Z,45.23
2019-03-03T03:03:49.364Z,45.63
2019-03-03T03:14:51.131Z,45.90
2019-03-03T03:17:31.742Z,45.27
2019-03-03T03:22:42.047Z,45.37
2019-03-03T03:31:06.517Z,48.30
2019-03-03T03:37:33.144Z,46.73
2019-03-03T03:46:20.507Z,47.50
2019-03-03T03:49:21.117Z,49.17
2019-03-03T03:54:49.778Z,49.17
2019-03-03T03:57:48.357Z,49.63
2019-03-03T04:03:23.635Z,48.83
2019-03-03T04:06:27.044Z,48.37
2019-03-03T04:09:18.469Z,48.47
2019-03-03T04:12:20.051Z,49.20
2019-03-03T04:17:55.452Z,51.87
2019-03-03T04:20:42.100Z,50.67
2019-03-03T04:23:22.701Z,50.50
2019-03-03T04:28:56.503Z,51.33
2019-03-03T04:31:55.118Z,51.90
2019-03-03T04:48:35.644Z,51.10
2019-03-03T04:51:16.150Z,48.97
2019-03-03T04:54:23.095Z,49.03
2019-03-03T04:57:10.805Z,50.63
2019-03-03T05:00:07.483Z,50.73
2019-03-03T05:03:00.536Z,52.20
2019-03-03T05:05:55.630Z,49.17
2019-03-03T05:08:53.351Z,51.27
2019-03-03T05:12:15.741Z,50.20
2019-03-03T05:14:52.617Z,50.77
2019-03-03T05:17:41.535Z,50.17
2019-03-03T05:20:13.564Z,50.70
2019-03-03T05:22:46.955Z,50.07
2019-03-03T05:25:23.046Z,49.60
2019-03-03T05:27:52.341Z,51.60
2019-03-03T05:30:21.139Z,51.30
2019-03-03T05:32:59.459Z,52.87
2019-03-03T05:35:30.079Z,51.67
2019-03-03T05:37:59.235Z,51.87
2019-03-03T05:40:30.786Z,51.50
2019-03-03T05:42:59.582Z,50.63
2019-03-03T05:45:34.957Z,52.43
2019-03-03T05:48:05.173Z,52.97
2019-03-03T05:50:33.936Z,50.00
2019-03-03T05:53:02.317Z,53.67
2019-03-03T05:55:36.224Z,50.83
2019-03-03T05:58:04.192Z,50.00
2019-03-03T06:00:32.582Z,52.03
2019-03-03T06:03:01.885Z,49.63
2019-03-03T06:05:33.160Z,50.80
2019-03-03T06:08:05.737Z,49.20
2019-03-03T06:10:34.059Z,51.10
2019-03-03T06:13:32.241Z,51.33
2019-03-03T06:16:01.111Z,50.27
2019-03-03T06:18:30.493Z,50.70
2019-03-03T06:20:58.602Z,49.03
2019-03-03T06:23:26.791Z,49.57
2019-03-03T06:25:55.217Z,47.83
2019-03-03T06:28:23.553Z,48.97
2019-03-03T06:30:52.037Z,49.20
2019-03-03T06:33:19.925Z,48.80
2019-03-03T06:35:48.487Z,47.97
2019-03-03T06:38:20.682Z,48.27
2019-03-03T06:40:49.613Z,48.30
2019-03-03T06:43:37.600Z,51.80
2019-03-03T06:46:18.336Z,47.30
2019-03-03T06:48:46.165Z,47.83
2019-03-03T06:51:14.253Z,49.20
2019-03-03T06:53:46.374Z,48.07
2019-03-03T06:56:18.360Z,48.93
2019-03-03T06:58:46.744Z,50.90
2019-03-03T07:01:14.646Z,48.67
2019-03-03T07:03:42.868Z,50.40
2019-03-03T07:06:15.523Z,49.63
2019-03-03T07:08:43.460Z,49.53
2019-03-03T07:11:17.661Z,48.50
2019-03-03T07:13:54.324Z,47.97
2019-03-03T07:16:22.220Z,47.87
2019-03-03T07:19:08.741Z,48.17
2019-03-03T07:21:36.562Z,49.13
2019-03-03T07:24:04.542Z,48.60
2019-03-03T07:26:32.323Z,49.87
2019-03-03T07:29:00.033Z,49.10
2019-03-03T07:31:27.985Z,50.37
2019-03-03T07:33:58.508Z,51.17
2019-03-03T07:36:26.295Z,51.30
2019-03-03T07:38:54.055Z,51.53
2019-03-03T07:41:21.824Z,52.20
2019-03-03T07:43:49.586Z,50.30
2019-03-03T07:46:32.340Z,50.17
2019-03-03T07:49:00.434Z,50.10
2019-03-03T07:51:31.611Z,48.83
2019-03-03T07:54:00.690Z,49.70
2019-03-03T07:56:40.397Z,50.57
2019-03-03T07:59:08.198Z,49.20
2019-03-03T08:01:36.302Z,49.33
2019-03-03T08:04:20.672Z,49.07
2019-03-03T08:06:49.152Z,49.33
2019-03-03T08:09:18.091Z,49.00
2019-03-03T08:14:24.101Z,48.40
2019-03-03T08:19:27.219Z,47.03
2019-03-03T08:21:55.077Z,46.90
2019-03-03T08:24:40.559Z,46.00
2019-03-03T08:27:08.432Z,44.87
2019-03-03T08:29:36.723Z,44.93
2019-03-03T08:32:06.315Z,43.50
2019-03-03T08:34:36.311Z,40.73
2019-03-03T08:37:14.015Z,42.23
2019-03-03T08:39:56.782Z,41.43
2019-03-03T08:42:38.337Z,41.90
2019-03-03T08:45:26.556Z,39.93
2019-03-03T08:48:22.596Z,40.97
2019-03-03T08:50:56.997Z,39.70
2019-03-03T08:53:32.989Z,39.43
2019-03-03T08:56:23.520Z,39.00
2019-03-03T08:59:01.099Z,36.13
2019-03-03T09:01:58.964Z,34.77
2019-03-03T09:04:44.848Z,36.37
2019-03-03T09:07:31.405Z,36.07
2019-03-03T09:10:25.550Z,36.13
2019-03-03T09:13:13.347Z,37.57
2019-03-03T09:16:05.775Z,38.00
2019-03-03T09:19:20.008Z,37.33
2019-03-03T09:22:15.632Z,37.03
2019-03-03T09:24:56.079Z,37.70
2019-03-03T09:27:49.066Z,37.03
2019-03-03T09:30:39.213Z,35.47
2019-03-03T09:33:36.786Z,34.93
2019-03-03T09:36:33.192Z,36.00
2019-03-03T09:39:10.032Z,35.93
2019-03-03T09:41:56.929Z,37.17
2019-03-03T09:44:48.381Z,37.03
2019-03-03T09:47:53.540Z,35.87
2019-03-03T09:50:44.052Z,35.07
2019-03-03T09:53:18.167Z,34.80
2019-03-03T09:56:05.832Z,35.63
2019-03-03T09:58:57.225Z,36.03
2019-03-03T10:01:43.178Z,34.13
2019-03-03T10:04:29.090Z,35.20
2019-03-03T10:07:22.503Z,36.03
2019-03-03T10:09:56.462Z,34.03
2019-03-03T10:12:49.337Z,33.80
2019-03-03T10:15:23.116Z,33.07
2019-03-03T10:18:15.360Z,33.67
2019-03-03T10:21:03.182Z,33.87
2019-03-03T10:23:37.949Z,33.37
2019-03-03T10:26:36.964Z,32.27
2019-03-03T10:29:28.030Z,32.17
2019-03-03T10:32:14.830Z,31.73
2019-03-03T10:34:52.801Z,31.47
2019-03-03T10:37:44.061Z,29.57
2019-03-03T10:40:32.927Z,29.77
2019-03-03T10:43:11.234Z,26.77
2019-03-03T10:46:07.637Z,26.77
2019-03-03T10:48:41.025Z,27.63
2019-03-03T10:51:27.952Z,27.17
2019-03-03T10:54:29.938Z,26.70
2019-03-03T10:57:44.630Z,26.57
2019-03-03T11:00:44.466Z,27.23
2019-03-03T11:03:30.337Z,27.10
2019-03-03T11:06:10.685Z,26.50
2019-03-03T11:09:06.378Z,25.93
2019-03-03T11:12:02.853Z,26.07
2019-03-03T11:14:39.583Z,25.93
2019-03-03T11:17:33.604Z,26.60
2019-03-03T11:20:17.958Z,25.87
2019-03-03T11:23:49.980Z,25.83
2019-03-03T11:26:43.369Z,26.97
2019-03-03T11:29:40.437Z,25.97
2019-03-03T11:32:35.720Z,27.20
2019-03-03T11:35:13.561Z,26.57
2019-03-03T11:38:03.802Z,26.07
2019-03-03T11:40:50.554Z,26.77
2019-03-03T11:43:46.968Z,26.10
2019-03-03T11:46:46.613Z,25.17
2019-03-03T11:49:30.341Z,25.60
2019-03-03T11:52:16.805Z,25.83
2019-03-03T11:55:05.527Z,25.50
2019-03-03T11:57:58.394Z,25.07
2019-03-03T12:00:57.750Z,26.07
2019-03-03T12:03:46.037Z,24.30
2019-03-03T12:06:33.940Z,23.80
2019-03-03T12:09:27.334Z,25.07
2019-03-03T12:12:13.271Z,26.47
2019-03-03T12:14:53.036Z,27.43
2019-03-03T12:17:39.108Z,27.87
2019-03-03T12:20:34.858Z,28.90
2019-03-03T12:23:37.052Z,28.50
2019-03-03T12:26:23.373Z,26.97
2019-03-03T12:29:12.503Z,26.83
2019-03-03T12:31:56.778Z,30.40
2019-03-03T12:34:51.710Z,29.30
2019-03-03T12:37:45.207Z,30.87
2019-03-03T12:40:27.854Z,30.87
2019-03-03T12:43:24.872Z,30.30
2019-03-03T12:46:09.263Z,29.33
2019-03-03T12:48:48.413Z,29.37
2019-03-03T12:51:36.567Z,28.80
2019-03-03T12:54:36.594Z,29.43
2019-03-03T12:57:25.435Z,28.70
2019-03-03T13:00:03.158Z,28.63
2019-03-03T13:02:54.232Z,28.20
2019-03-03T13:05:42.340Z,29.07
2019-03-03T13:08:27.942Z,27.93
2019-03-03T13:11:20.049Z,28.47
2019-03-03T13:14:09.066Z,29.23
2019-03-03T13:17:29.510Z,29.00
2019-03-03T13:20:10.269Z,29.23
2019-03-03T13:23:00.377Z,29.40
2019-03-03T13:25:41.861Z,27.73
2019-03-03T13:28:38.074Z,29.73
2019-03-03T13:31:24.736Z,28.63
2019-03-03T13:34:04.242Z,29.50
2019-03-03T13:37:04.481Z,29.53
2019-03-03T13:39:57.182Z,29.83
2019-03-03T13:42:49.121Z,29.53
2019-03-03T13:45:17.274Z,29.47
2019-03-03T13:47:45.358Z,31.03
2019-03-03T13:50:16.633Z,30.43
2019-03-03T13:52:53.622Z,30.70
2019-03-03T13:55:23.343Z,30.13
2019-03-03T13:57:51.735Z,29.60
2019-03-03T14:00:29.030Z,28.83
2019-03-03T14:05:42.132Z,29.17
2019-03-03T14:08:11.186Z,28.87
2019-03-03T14:10:39.597Z,28.20
2019-03-03T14:15:44.247Z,28.63
2019-03-03T14:18:12.429Z,29.17
2019-03-03T14:20:42.202Z,29.13
2019-03-03T14:23:10.890Z,28.50
2019-03-03T14:25:41.966Z,30.00
2019-03-03T14:28:09.946Z,28.53
2019-03-03T14:30:38.336Z,29.30
2019-03-03T14:33:06.269Z,28.00
2019-03-03T14:35:40.169Z,28.13
2019-03-03T14:38:11.504Z,27.47
2019-03-03T14:40:42.562Z,27.80
2019-03-03T14:43:11.671Z,28.67
2019-03-03T14:45:46.969Z,28.10
2019-03-03T14:48:15.587Z,28.80
2019-03-03T14:50:43.756Z,27.03
2019-03-03T14:53:11.916Z,27.70
2019-03-03T14:55:46.300Z,26.53
2019-03-03T14:58:15.140Z,28.33
2019-03-03T15:00:48.814Z,27.60
2019-03-03T15:03:18.596Z,27.70
2019-03-03T15:05:47.207Z,28.97
2019-03-03T15:08:20.303Z,29.47
2019-03-03T15:11:06.605Z,28.87
2019-03-03T15:13:34.675Z,28.07
2019-03-03T15:16:02.954Z,28.53
2019-03-03T15:18:32.911Z,29.10
2019-03-03T15:21:00.684Z,27.13
2019-03-03T15:23:35.712Z,27.20
2019-03-03T15:26:11.649Z,27.90
2019-03-03T15:28:39.798Z,28.07
2019-03-03T15:31:10.012Z,27.23
2019-03-03T15:33:41.589Z,26.40
2019-03-03T15:36:10.666Z,26.50
2019-03-03T15:38:39.912Z,25.70
2019-03-03T15:41:15.396Z,25.07
2019-03-03T15:43:43.400Z,24.03
2019-03-03T15:46:11.242Z,24.23
2019-03-03T15:48:39.053Z,25.93
2019-03-03T15:51:25.022Z,24.33
2019-03-03T15:53:52.994Z,24.03
2019-03-03T15:56:26.963Z,24.43
2019-03-03T15:58:55.800Z,24.10
2019-03-03T16:01:26.881Z,23.13
2019-03-03T16:03:55.890Z,24.13
2019-03-03T16:06:23.634Z,22.50
2019-03-03T16:09:15.300Z,23.17
2019-03-03T16:11:43.227Z,23.63
2019-03-03T16:14:17.478Z,23.03
2019-03-03T16:16:45.353Z,22.63
2019-03-03T16:19:15.008Z,23.03
2019-03-03T16:21:48.325Z,22.67
2019-03-03T16:24:23.125Z,21.97
2019-03-03T16:26:57.793Z,22.43
2019-03-03T16:29:29.005Z,21.97
2019-03-03T16:31:57.851Z,22.23
2019-03-03T16:34:47.974Z,21.50
2019-03-03T16:37:17.696Z,21.60
2019-03-03T16:39:56.079Z,20.87
2019-03-03T16:42:24.067Z,19.67
2019-03-03T16:44:51.989Z,19.53
2019-03-03T16:47:19.876Z,19.57
2019-03-03T16:49:49.002Z,20.10
2019-03-03T16:52:17.741Z,19.17
2019-03-03T16:54:47.864Z,18.17
2019-03-03T16:57:20.219Z,16.67
2019-03-03T16:59:49.238Z,18.87
2019-03-03T17:02:17.152Z,17.90
2019-03-03T17:04:45.827Z,16.77
2019-03-03T17:07:17.139Z,19.47
2019-03-03T17:09:47.970Z,19.40
2019-03-03T17:12:16.358Z,20.27
2019-03-03T17:14:44.276Z,18.90
2019-03-03T17:17:12.343Z,19.07
2019-03-03T17:19:41.103Z,18.40
2019-03-03T17:22:14.969Z,18.43
2019-03-03T17:24:44.638Z,18.67
2019-03-03T17:27:13.908Z,16.03
2019-03-03T17:29:41.924Z,19.10
2019-03-03T17:32:09.730Z,19.07
2019-03-03T17:34:38.332Z,18.70
2019-03-03T17:37:06.888Z,20.27
2019-03-03T17:39:37.518Z,19.37
2019-03-03T17:42:05.381Z,19.20
2019-03-03T17:44:35.962Z,20.27
2019-03-03T17:47:06.894Z,19.67
2019-03-03T17:49:35.639Z,20.00
2019-03-03T17:52:07.065Z,20.40
2019-03-03T17:54:40.186Z,20.67
2019-03-03T17:57:08.594Z,19.73
2019-03-03T17:59:42.789Z,21.10
2019-03-03T18:02:10.765Z,20.10
2019-03-03T18:04:39.366Z,17.93
2019-03-03T18:07:08.346Z,19.70
2019-03-03T18:09:41.715Z,20.13
2019-03-03T18:12:09.977Z,20.07
2019-03-03T18:14:43.670Z,15.77
2019-03-03T18:17:11.461Z,16.17
2019-03-03T18:19:39.300Z,20.53
2019-03-03T18:22:14.342Z,20.03
2019-03-03T18:24:49.504Z,20.20
2019-03-03T18:27:19.931Z,20.17
2019-03-03T18:29:51.148Z,21.43
2019-03-03T18:32:21.053Z,22.03
2019-03-03T18:34:50.143Z,23.70
2019-03-03T18:37:18.383Z,21.07
2019-03-03T18:39:56.517Z,23.17
2019-03-03T18:42:24.493Z,22.23
2019-03-03T18:45:04.568Z,22.03
2019-03-03T18:47:36.798Z,22.47
2019-03-03T18:50:06.705Z,22.73
2019-03-03T18:52:41.176Z,22.97
2019-03-03T18:55:09.066Z,24.17
2019-03-03T18:57:36.834Z,23.20
2019-03-03T19:00:13.819Z,23.47
2019-03-03T19:02:44.193Z,22.07
2019-03-03T19:05:12.703Z,23.97
2019-03-03T19:07:48.612Z,24.83
2019-03-03T19:10:17.262Z,24.60
2019-03-03T19:12:45.370Z,22.50
2019-03-03T19:15:14.858Z,22.87
2019-03-03T19:17:43.414Z,23.47
2019-03-03T19:20:18.051Z,23.67
2019-03-03T19:22:46.036Z,20.43
2019-03-03T19:25:14.580Z,23.13
2019-03-03T19:27:43.358Z,22.97
2019-03-03T19:30:22.117Z,24.60
2019-03-03T19:32:56.532Z,23.63
2019-03-03T19:35:24.518Z,19.73
2019-03-03T19:37:53.897Z,22.77
2019-03-03T19:40:21.885Z,20.73
2019-03-03T19:42:50.165Z,21.90
2019-03-03T19:45:23.251Z,25.47
2019-03-03T19:47:50.927Z,23.30
2019-03-03T19:50:18.742Z,24.80
2019-03-03T19:52:46.611Z,24.47
2019-03-03T19:55:14.801Z,21.60
2019-03-03T19:57:42.792Z,25.17
2019-03-03T20:00:16.266Z,24.17
2019-03-03T20:02:44.332Z,23.33
2019-03-03T20:05:12.164Z,23.17
2019-03-03T20:07:39.947Z,24.10
2019-03-03T20:10:09.924Z,25.03
2019-03-03T20:12:38.228Z,19.33
2019-03-03T20:15:08.012Z,22.93
2019-03-03T20:17:36.033Z,22.40
2019-03-03T20:20:08.052Z,23.07
2019-03-03T20:22:37.617Z,23.50
2019-03-03T20:25:06.079Z,24.23
2019-03-03T20:27:35.850Z,20.63
2019-03-03T20:30:05.692Z,22.77
2019-03-03T20:32:33.543Z,20.37
2019-03-03T20:35:05.236Z,22.80
2019-03-03T20:37:33.114Z,20.30
2019-03-03T20:40:00.818Z,20.73
2019-03-03T20:42:30.394Z,22.87
2019-03-03T20:45:00.615Z,22.60
2019-03-03T20:47:30.380Z,23.83
2019-03-03T20:49:58.385Z,22.07
2019-03-03T20:52:28.687Z,22.97
2019-03-03T20:54:56.100Z,21.23
2019-03-03T20:57:24.335Z,21.63
2019-03-03T20:59:52.611Z,23.17
2019-03-03T21:02:21.569Z,25.70
2019-03-03T21:04:49.367Z,20.63
2019-03-03T21:07:17.947Z,23.80
2019-03-03T21:09:46.831Z,25.93
2019-03-03T21:12:15.169Z,25.40
2019-03-03T21:14:51.515Z,26.20
2019-03-03T21:17:23.555Z,27.90
2019-03-03T21:19:51.220Z,27.07
2019-03-03T21:22:19.341Z,26.87
2019-03-03T21:24:49.214Z,27.17
2019-03-03T21:27:17.218Z,26.30
2019-03-03T21:29:45.260Z,26.13
2019-03-03T21:32:12.911Z,23.77
2019-03-03T21:34:40.957Z,24.70
2019-03-03T21:37:08.680Z,22.37
2019-03-03T21:39:36.581Z,22.07
2019-03-03T21:42:05.487Z,20.07
2019-03-03T21:44:33.565Z,23.97
2019-03-03T21:47:04.925Z,22.37
2019-03-03T21:49:32.574Z,23.10
2019-03-03T21:52:02.061Z,21.97
2019-03-03T21:54:30.213Z,19.47
2019-03-03T21:56:57.951Z,22.07
2019-03-03T21:59:25.999Z,23.10
2019-03-03T22:01:54.032Z,21.43
2019-03-03T22:04:22.062Z,21.60
2019-03-03T22:06:50.067Z,22.43
2019-03-03T22:09:17.827Z,19.00
2019-03-03T22:11:46.756Z,23.40
2019-03-03T22:14:14.771Z,23.00
2019-03-03T22:16:42.512Z,24.00
2019-03-03T22:19:10.275Z,22.43
2019-03-03T22:21:41.008Z,23.90
2019-03-03T22:24:08.660Z,24.20
2019-03-03T22:26:39.588Z,25.93
2019-03-03T22:29:08.244Z,24.63
2019-03-03T22:31:36.930Z,26.10
2019-03-03T22:34:05.395Z,25.73
2019-03-03T22:36:38.959Z,26.43
2019-03-03T22:39:11.679Z,26.67
2019-03-03T22:41:41.107Z,26.33
2019-03-03T22:44:10.959Z,25.20
2019-03-03T22:46:39.053Z,26.90
2019-03-03T22:49:12.576Z,25.33
2019-03-03T22:51:40.956Z,25.63
2019-03-03T22:54:08.770Z,20.00
2019-03-03T22:56:42.005Z,26.10
2019-03-03T22:59:10.564Z,25.67
2019-03-03T23:01:40.895Z,26.93
2019-03-03T23:04:45.963Z,26.23
2019-03-03T23:07:23.894Z,26.57
2019-03-03T23:10:27.011Z,25.90
2019-03-03T23:13:01.477Z,24.57
2019-03-03T23:15:57.718Z,26.53
2019-03-03T23:19:08.576Z,26.83
2019-03-03T23:21:46.694Z,27.93
2019-03-03T23:24:53.234Z,28.60
2019-03-03T23:27:21.823Z,27.50
2019-03-03T23:29:49.720Z,29.40
2019-03-03T23:32:17.633Z,28.53
2019-03-03T23:34:51.992Z,28.50
2019-03-03T23:37:19.749Z,28.47
2019-03-03T23:39:50.853Z,28.93
2019-03-03T23:42:19.364Z,28.27
2019-03-03T23:44:49.166Z,28.10
2019-03-03T23:47:21.624Z,28.37
2019-03-03T23:49:49.356Z,25.70
2019-03-03T23:52:18.384Z,26.77
2019-03-03T23:54:46.895Z,25.23
2019-03-03T23:57:16.709Z,25.83
2019-03-03T23:59:48.540Z,24.47
